Time;durP1;ratioP1;P1;durP2;ratioP2;P2;SDS_P1;SDS_P2;PMS_P1;PMS_P2;Temp;Humidity;BMP_temperature;BMP_pressure;BME280_temperature;BME280_humidity;BME280_pressure;Samples;Min_cycle;Max_cycle;Signal;HPM_P1;HPM_P2
2021/08/20 00:00:31;;;;;;;4.00;2.73;;;;;;;16.81;93.97;100631.81;5053833;28;20207;-73
2021/08/20 00:02:57;;;;;;;5.13;3.00;;;;;;;16.80;93.82;100624.88;5057712;28;20207;-74
2021/08/20 00:05:25;;;;;;;3.03;2.43;;;;;;;16.81;93.21;100623.06;5054167;28;20234;-73
2021/08/20 00:07:52;;;;;;;4.07;3.10;;;;;;;16.80;93.42;100627.50;5053107;28;20215;-73
2021/08/20 00:10:18;;;;;;;3.43;3.10;;;;;;;16.78;93.40;100626.72;5065192;28;20199;-73
2021/08/20 00:12:45;;;;;;;5.10;3.50;;;;;;;16.79;93.69;100628.41;5058196;28;20203;-74
2021/08/20 00:15:12;;;;;;;4.80;3.17;;;;;;;16.79;93.43;100611.78;5057600;28;20290;-73
2021/08/20 00:17:38;;;;;;;3.73;3.00;;;;;;;16.78;93.35;100618.84;5036612;28;20227;-74
2021/08/20 00:20:06;;;;;;;4.53;3.17;;;;;;;16.77;93.19;100619.75;5037322;28;20199;-73
2021/08/20 00:22:34;;;;;;;3.50;2.83;;;;;;;16.76;93.00;100620.69;5035485;28;20210;-74
2021/08/20 00:25:00;;;;;;;3.90;3.20;;;;;;;16.74;93.70;100622.53;5037119;28;20204;-73
2021/08/20 00:27:27;;;;;;;4.77;3.00;;;;;;;16.73;93.67;100620.84;5034444;28;20238;-73
2021/08/20 00:29:53;;;;;;;4.30;3.30;;;;;;;16.73;93.25;100622.66;5018883;28;20208;-73
2021/08/20 00:32:20;;;;;;;3.67;3.20;;;;;;;16.73;93.64;100627.91;5017268;28;20275;-74
2021/08/20 00:34:47;;;;;;;3.93;3.40;;;;;;;16.71;93.50;100627.97;5036476;28;20271;-74
2021/08/20 00:37:14;;;;;;;4.83;3.30;;;;;;;16.70;93.42;100626.28;5037382;28;20216;-74
2021/08/20 00:39:42;;;;;;;3.83;3.20;;;;;;;16.70;93.97;100622.78;5021011;28;20239;-73
2021/08/20 00:42:09;;;;;;;4.33;3.53;;;;;;;16.69;93.70;100626.34;5032397;28;20391;-73
2021/08/20 00:44:35;;;;;;;4.77;3.50;;;;;;;16.68;93.62;100622.88;5034538;28;20430;-73
2021/08/20 00:47:02;;;;;;;4.70;3.50;;;;;;;16.68;93.68;100620.25;5022286;28;20215;-73
2021/08/20 00:49:30;;;;;;;5.30;3.33;;;;;;;16.66;93.31;100622.09;5033455;28;20216;-73
2021/08/20 00:51:56;;;;;;;3.53;3.03;;;;;;;16.65;93.60;100623.03;5018064;28;20219;-74
2021/08/20 00:54:23;;;;;;;4.10;3.40;;;;;;;16.63;93.90;100625.72;5017564;28;20622;-73
2021/08/20 00:56:51;;;;;;;5.37;3.57;;;;;;;16.62;93.58;100620.53;5020008;28;20227;-73
2021/08/20 00:59:17;;;;;;;3.63;3.33;;;;;;;16.62;93.44;100623.16;5033163;28;20302;-74
2021/08/20 01:01:44;;;;;;;3.70;3.27;;;;;;;16.61;93.92;100624.13;5033507;28;20243;-73
2021/08/20 01:04:11;;;;;;;3.90;3.33;;;;;;;16.60;94.06;100625.91;5033774;28;20212;-74
2021/08/20 01:06:39;;;;;;;4.10;3.30;;;;;;;16.61;93.96;100624.13;5037546;28;20200;-74
2021/08/20 01:09:08;;;;;;;3.83;3.30;;;;;;;16.58;94.32;100619.84;5023612;28;20235;-74
2021/08/20 01:11:35;;;;;;;3.67;3.07;;;;;;;16.58;94.55;100611.94;5035921;28;20203;-74
2021/08/20 01:14:04;;;;;;;5.00;3.37;;;;;;;16.56;94.65;100615.59;5022447;28;20695;-74
2021/08/20 01:16:31;;;;;;;4.20;3.67;;;;;;;16.56;94.05;100610.34;5031904;28;20281;-74
2021/08/20 01:18:59;;;;;;;4.70;3.37;;;;;;;16.56;94.83;100615.59;5054892;28;20298;-74
2021/08/20 01:21:26;;;;;;;4.23;3.37;;;;;;;16.54;94.58;100615.69;5046180;28;20198;-74
2021/08/20 01:23:55;;;;;;;6.23;3.50;;;;;;;16.53;95.90;100616.59;5044321;28;20258;-74
2021/08/20 01:26:24;;;;;;;3.83;3.27;;;;;;;16.50;95.41;100614.16;5064654;28;20214;-74
2021/08/20 01:28:51;;;;;;;5.10;3.77;;;;;;;16.48;95.50;100616.00;5042612;28;20501;-73
2021/08/20 01:31:18;;;;;;;5.27;3.57;;;;;;;16.47;95.46;100611.66;5058257;28;20204;-73
2021/08/20 01:33:46;;;;;;;4.67;3.97;;;;;;;16.48;95.69;100610.75;5044217;28;20225;-74
2021/08/20 01:36:13;;;;;;;5.00;3.53;;;;;;;16.46;96.09;100612.59;5065454;28;20202;-74
2021/08/20 01:38:47;;;;;;;5.23;3.90;;;;;;;16.44;95.80;100610.03;5055567;28;20243;-74
2021/08/20 01:41:14;;;;;;;4.63;3.60;;;;;;;16.44;96.11;100617.91;5043055;28;20223;-73
2021/08/20 01:43:42;;;;;;;5.30;3.93;;;;;;;16.43;95.77;100616.22;5043545;28;20230;-73
2021/08/20 01:46:08;;;;;;;4.33;3.50;;;;;;;16.43;96.59;100613.59;5056586;28;20268;-74
2021/08/20 01:48:35;;;;;;;4.77;3.93;;;;;;;16.44;96.35;100620.53;5043061;28;20223;-73
2021/08/20 01:51:01;;;;;;;4.90;4.10;;;;;;;16.43;95.94;100623.28;5040790;28;20221;-73
2021/08/20 01:53:29;;;;;;;5.53;3.47;;;;;;;16.41;95.94;100620.72;5045479;28;20210;-74
2021/08/20 01:55:55;;;;;;;6.00;4.10;;;;;;;16.41;96.38;100618.09;5056677;28;20214;-74
2021/08/20 01:58:21;;;;;;;5.37;4.27;;;;;;;16.41;96.23;100626.00;5045920;28;20239;-73
2021/08/20 02:00:49;;;;;;;5.80;4.23;;;;;;;16.41;95.97;100623.34;5042900;28;20218;-73
2021/08/20 02:03:20;;;;;;;5.50;4.37;;;;;;;16.40;96.24;100624.28;5051201;28;20212;-73
2021/08/20 02:05:46;;;;;;;4.53;3.67;;;;;;;16.42;96.24;100622.41;5062480;28;20455;-73
2021/08/20 02:08:13;;;;;;;5.53;4.20;;;;;;;16.40;96.41;100620.81;5060144;28;20227;-73
2021/08/20 02:10:40;;;;;;;6.47;4.23;;;;;;;16.41;96.62;100625.13;5063049;28;20581;-73
2021/08/20 02:13:06;;;;;;;5.80;4.13;;;;;;;16.41;96.22;100626.00;5039077;28;20229;-74
2021/08/20 02:15:34;;;;;;;5.77;4.30;;;;;;;16.41;96.03;100620.72;5043095;28;20217;-74
2021/08/20 02:18:02;;;;;;;6.50;4.67;;;;;;;16.43;96.22;100626.75;5038193;28;20306;-74
2021/08/20 02:20:29;;;;;;;5.47;4.50;;;;;;;16.43;96.21;100625.91;5026934;28;20295;-73
2021/08/20 02:22:56;;;;;;;5.67;4.63;;;;;;;16.41;96.14;100623.34;5041760;28;20206;-73
2021/08/20 02:25:24;;;;;;;7.00;4.50;;;;;;;16.42;96.68;100624.19;5022926;28;20231;-73
2021/08/20 02:27:52;;;;;;;5.33;4.50;;;;;;;16.39;97.30;100621.72;5020540;28;20243;-73
2021/08/20 02:30:19;;;;;;;6.37;4.70;;;;;;;16.39;96.36;100624.34;5021831;28;20204;-73
2021/08/20 02:32:49;;;;;;;5.67;4.07;;;;;;;16.41;96.92;100617.22;5032127;28;20211;-73
2021/08/20 02:35:18;;;;;;;6.30;4.53;;;;;;;16.40;96.50;100624.28;5021373;28;20584;-73
2021/08/20 02:37:45;;;;;;;6.87;4.80;;;;;;;16.40;96.94;100628.69;5020325;28;20238;-73
2021/08/20 02:40:12;;;;;;;5.90;4.20;;;;;;;16.39;97.12;100622.59;5020668;28;20219;-73
2021/08/20 02:42:46;;;;;;;7.43;4.40;;;;;;;16.38;96.79;100622.66;5022047;28;20215;-73
2021/08/20 02:45:13;;;;;;;6.27;4.33;;;;;;;16.39;97.27;100621.72;5038937;28;20235;-74
2021/08/20 02:47:40;;;;;;;7.50;5.23;;;;;;;16.38;97.38;100628.75;5021680;28;20224;-73
2021/08/20 02:50:08;;;;;;;6.80;5.10;;;;;;;16.38;97.16;100633.19;5041135;28;20203;-73
2021/08/20 02:52:36;;;;;;;5.67;4.37;;;;;;;16.39;97.25;100629.59;5019171;28;20205;-74
2021/08/20 02:55:03;;;;;;;5.53;4.30;;;;;;;16.40;96.95;100629.53;5036790;28;21522;-74
2021/08/20 02:57:37;;;;;;;6.47;5.07;;;;;;;16.40;97.37;100631.31;5033881;28;20235;-74
2021/08/20 03:00:05;;;;;;;5.93;4.60;;;;;;;16.41;96.78;100630.38;5026568;28;20207;-73
2021/08/20 03:02:34;;;;;;;6.33;4.50;;;;;;;16.39;97.38;100619.97;5032967;28;20208;-73
2021/08/20 03:05:01;;;;;;;5.93;4.20;;;;;;;16.39;97.60;100624.34;5022097;28;20216;-73
2021/08/20 03:07:27;;;;;;;7.00;4.70;;;;;;;16.37;97.47;100632.31;5036946;28;20307;-73
2021/08/20 03:09:55;;;;;;;6.67;5.00;;;;;;;16.37;97.78;100623.56;5019463;28;20231;-73
2021/08/20 03:12:24;;;;;;;6.57;4.53;;;;;;;16.35;97.80;100623.66;5020017;28;20215;-73
2021/08/20 03:14:54;;;;;;;5.97;5.07;;;;;;;16.35;97.71;100626.28;5020166;28;20230;-73
2021/08/20 03:17:24;;;;;;;6.30;4.80;;;;;;;16.35;97.90;100628.91;5036512;28;20241;-73
2021/08/20 03:19:50;;;;;;;6.10;4.63;;;;;;;16.34;98.49;100631.63;5038640;28;20227;-74
2021/08/20 03:22:17;;;;;;;6.83;4.67;;;;;;;16.33;97.97;100625.50;5034954;28;20204;-74
2021/08/20 03:24:44;;;;;;;6.97;4.50;;;;;;;16.33;98.31;100629.94;5054226;28;20210;-74
2021/08/20 03:27:11;;;;;;;8.47;4.63;;;;;;;16.33;98.00;100629.94;5054033;28;20208;-74
2021/08/20 03:29:41;;;;;;;5.50;4.37;;;;;;;16.31;98.16;100627.38;5036836;28;20215;-74
2021/08/20 03:32:21;;;;;;;6.20;4.53;;;;;;;16.28;98.32;100630.16;5039059;28;20252;-74
2021/08/20 03:34:53;;;;;;;6.30;4.60;;;;;;;16.27;98.76;100631.09;5046122;28;20222;-74
2021/08/20 03:37:20;;;;;;;5.33;4.30;;;;;;;16.25;99.36;100639.06;5051561;28;20275;-73
2021/08/20 03:39:46;;;;;;;5.40;4.40;;;;;;;16.25;99.64;100636.44;5055543;28;20225;-73
2021/08/20 03:42:18;;;;;;;6.00;4.83;;;;;;;16.24;100.00;100644.41;5045801;28;20215;-73
2021/08/20 03:45:06;;;;;;;6.00;4.60;;;;;;;16.22;100.00;100641.00;5049724;28;20211;-73
2021/08/20 03:47:32;;;;;;;7.10;4.87;;;;;;;16.21;100.00;100636.66;5059797;28;20242;-74
2021/08/20 03:49:58;;;;;;;7.57;5.53;;;;;;;16.20;100.00;100640.19;5039395;28;20215;-74
2021/08/20 03:52:26;;;;;;;6.47;5.07;;;;;;;16.17;100.00;100641.22;5045953;28;20274;-74
2021/08/20 03:54:52;;;;;;;6.63;5.03;;;;;;;16.15;100.00;100632.53;5038178;28;20270;-74
2021/08/20 03:57:23;;;;;;;6.80;4.90;;;;;;;16.16;100.00;100630.75;5040191;28;20258;-74
2021/08/20 03:59:49;;;;;;;7.47;5.50;;;;;;;16.14;100.00;100630.84;5049826;28;20204;-74
2021/08/20 04:02:16;;;;;;;7.57;5.23;;;;;;;16.13;100.00;100630.91;5055323;28;20309;-74
2021/08/20 04:04:44;;;;;;;6.93;5.20;;;;;;;16.11;100.00;100630.13;5034812;28;20206;-74
2021/08/20 04:07:22;;;;;;;7.57;5.70;;;;;;;16.10;100.00;100637.19;5039193;28;20237;-74
2021/08/20 04:09:58;;;;;;;7.70;6.10;;;;;;;16.08;100.00;100639.88;5055943;28;20217;-74
2021/08/20 04:12:48;;;;;;;7.77;5.53;;;;;;;16.06;100.00;100644.38;5048066;28;20796;-74
2021/08/20 04:15:32;;;;;;;7.90;5.43;;;;;;;16.07;100.00;100642.56;5051113;28;20622;-74
2021/08/20 04:17:59;;;;;;;9.47;5.63;;;;;;;16.07;100.00;100645.22;5034569;28;20253;-74
2021/08/20 04:20:25;;;;;;;8.30;6.10;;;;;;;16.06;100.00;100639.09;5033112;28;20290;-74
2021/08/20 04:22:53;;;;;;;8.83;5.87;;;;;;;16.07;100.00;100653.94;5052042;28;20198;-74
2021/08/20 04:25:20;;;;;;;9.00;5.63;;;;;;;16.05;100.00;100650.53;5036706;28;20225;-74
2021/08/20 04:28:04;;;;;;;7.37;5.60;;;;;;;16.05;100.00;100649.69;5034798;28;20282;-74
2021/08/20 04:30:37;;;;;;;8.70;6.43;;;;;;;16.05;100.00;100647.91;5044410;28;20681;-74
2021/08/20 04:33:17;;;;;;;8.33;5.67;;;;;;;16.06;100.00;100646.16;5049752;28;20215;-74
2021/08/20 04:36:06;;;;;;;7.57;5.77;;;;;;;16.06;100.00;100648.78;5056529;28;20199;-74
2021/08/20 04:38:43;;;;;;;7.50;5.57;;;;;;;16.07;100.00;100651.31;5044348;28;20230;-74
2021/08/20 04:41:32;;;;;;;8.03;6.33;;;;;;;16.07;100.00;100653.94;5029409;28;20306;-74
2021/08/20 04:44:06;;;;;;;9.23;6.47;;;;;;;16.08;100.00;100654.81;5041729;28;20202;-74
2021/08/20 04:47:09;;;;;;;8.13;5.97;;;;;;;16.08;100.00;100655.66;5033088;28;20217;-73
2021/08/20 04:49:55;;;;;;;8.87;6.30;;;;;;;16.11;100.00;100661.69;5053591;28;20272;-73
2021/08/20 04:52:34;;;;;;;7.07;5.80;;;;;;;16.11;100.00;100662.53;5047509;28;20215;-74
2021/08/20 04:55:21;;;;;;;9.00;6.30;;;;;;;16.13;100.00;100665.09;5048088;28;21099;-73
2021/08/20 04:57:47;;;;;;;8.43;6.00;;;;;;;16.14;100.00;100666.81;5044739;28;20233;-74
2021/08/20 05:00:15;;;;;;;7.13;5.53;;;;;;;16.14;100.00;100667.66;5054738;28;20589;-74
2021/08/20 05:02:42;;;;;;;7.80;5.97;;;;;;;16.17;100.00;100664.03;5042658;28;20203;-73
2021/08/20 05:05:09;;;;;;;7.13;5.70;;;;;;;16.18;100.00;100666.59;5043300;28;20196;-73
2021/08/20 05:07:35;;;;;;;7.87;5.63;;;;;;;16.16;100.00;100660.53;5053470;28;20219;-73
2021/08/20 05:10:05;;;;;;;7.97;5.73;;;;;;;16.18;100.00;100658.72;5054577;28;20286;-74
2021/08/20 05:12:32;;;;;;;7.70;5.87;;;;;;;16.20;100.00;100656.84;5061980;28;20241;-74
2021/08/20 05:14:58;;;;;;;9.00;6.20;;;;;;;16.21;100.00;100663.78;5048670;28;20207;-74
2021/08/20 05:17:26;;;;;;;8.40;6.33;;;;;;;16.24;100.00;100665.44;5037522;28;20227;-74
2021/08/20 05:19:52;;;;;;;9.47;6.50;;;;;;;16.25;100.00;100665.38;5030106;28;20212;-74
2021/08/20 05:22:19;;;;;;;9.40;5.73;;;;;;;16.25;100.00;100664.50;5033458;28;20208;-74
2021/08/20 05:24:45;;;;;;;7.73;6.03;;;;;;;16.30;100.00;100664.28;5030894;28;20223;-73
2021/08/20 05:27:12;;;;;;;7.47;6.03;;;;;;;16.33;100.00;100664.13;5033750;28;20212;-73
2021/08/20 05:29:38;;;;;;;9.60;6.50;;;;;;;16.35;100.00;100675.44;5035972;28;20196;-74
2021/08/20 05:32:05;;;;;;;8.77;5.93;;;;;;;16.36;100.00;100670.09;5031694;28;20206;-74
2021/08/20 05:34:33;;;;;;;8.90;6.07;;;;;;;16.35;100.00;100684.16;5034699;28;20212;-74
2021/08/20 05:36:59;;;;;;;8.03;6.27;;;;;;;16.38;100.00;100677.91;5030778;28;20204;-73
2021/08/20 05:39:25;;;;;;;9.73;6.00;;;;;;;16.40;100.00;100676.91;5034597;28;20226;-73
2021/08/20 05:41:52;;;;;;;7.93;5.73;;;;;;;16.43;100.00;100668.84;5025373;28;20231;-73
2021/08/20 05:44:18;;;;;;;9.30;6.10;;;;;;;16.45;100.00;100674.06;5030474;28;20720;-73
2021/08/20 05:46:45;;;;;;;11.13;5.80;;;;;;;16.50;100.00;100677.31;5028555;28;20197;-73
2021/08/20 05:49:11;;;;;;;9.67;6.07;;;;;;;16.51;100.00;100686.88;5032816;28;20227;-73
2021/08/20 05:51:39;;;;;;;7.43;5.33;;;;;;;16.54;100.00;100683.25;5032596;28;20207;-74
2021/08/20 05:54:05;;;;;;;8.67;5.70;;;;;;;16.61;100.00;100684.66;5036243;28;20207;-73
2021/08/20 05:56:31;;;;;;;7.60;5.83;;;;;;;16.68;100.00;100688.69;5037223;28;20208;-73
2021/08/20 05:58:58;;;;;;;10.10;6.00;;;;;;;16.73;100.00;100693.72;5037897;28;20241;-73
2021/08/20 06:01:24;;;;;;;6.73;5.47;;;;;;;16.82;100.00;100691.47;5038490;28;20219;-73
2021/08/20 06:03:50;;;;;;;8.00;5.70;;;;;;;16.90;100.00;100687.59;5017226;28;20212;-73
2021/08/20 06:06:40;;;;;;;9.20;6.17;;;;;;;17.00;100.00;100688.84;5020698;28;20474;-73
2021/08/20 06:09:09;;;;;;;8.53;5.70;;;;;;;17.14;100.00;100688.13;5019417;28;20239;-74
2021/08/20 06:11:35;;;;;;;9.63;5.90;;;;;;;17.27;100.00;100689.16;5040370;28;20211;-74
2021/08/20 06:14:02;;;;;;;7.97;5.60;;;;;;;17.43;100.00;100689.22;5038079;28;20211;-73
2021/08/20 06:16:28;;;;;;;8.57;6.00;;;;;;;17.53;100.00;100690.41;5051833;28;20218;-73
2021/08/20 06:18:55;;;;;;;8.07;5.90;;;;;;;17.59;100.00;100692.72;5061131;28;20223;-73
2021/08/20 06:21:21;;;;;;;7.20;5.43;;;;;;;17.72;100.00;100700.81;5066349;28;20214;-73
2021/08/20 06:23:49;;;;;;;7.20;5.77;;;;;;;17.84;99.37;100691.38;5057027;28;20204;-73
2021/08/20 06:26:16;;;;;;;7.60;5.00;;;;;;;17.95;98.87;100704.84;5060044;28;20210;-74
2021/08/20 06:28:42;;;;;;;6.60;4.97;;;;;;;17.96;98.06;100697.78;5065006;28;20797;-73
2021/08/20 06:31:08;;;;;;;6.23;5.40;;;;;;;18.02;97.75;100696.59;5056122;28;20298;-73
2021/08/20 06:33:37;;;;;;;7.67;5.10;;;;;;;17.96;97.50;100703.06;5065012;28;20214;-73
2021/08/20 06:36:03;;;;;;;6.90;5.10;;;;;;;17.90;97.23;100701.59;5059180;28;20210;-73
2021/08/20 06:38:30;;;;;;;9.23;5.63;;;;;;;17.92;97.08;100697.13;5066178;28;20242;-73
2021/08/20 06:40:58;;;;;;;7.43;4.63;;;;;;;17.92;96.52;100698.88;5058920;28;20210;-73
2021/08/20 06:43:24;;;;;;;6.70;4.77;;;;;;;17.97;96.92;100694.19;5066424;28;20211;-73
2021/08/20 06:45:50;;;;;;;7.83;5.13;;;;;;;17.92;96.04;100699.75;5058027;28;20202;-73
2021/08/20 06:48:17;;;;;;;7.07;5.23;;;;;;;17.97;96.89;100691.56;5056726;28;20215;-73
2021/08/20 06:50:44;;;;;;;7.27;4.83;;;;;;;17.90;95.73;100698.97;5056035;28;20204;-73
2021/08/20 06:53:11;;;;;;;8.00;5.43;;;;;;;17.94;95.75;100702.28;5067250;28;20410;-73
2021/08/20 06:55:37;;;;;;;6.57;4.73;;;;;;;17.98;95.71;100701.19;5059096;28;20204;-73
2021/08/20 06:58:05;;;;;;;7.10;4.83;;;;;;;18.06;96.49;100703.38;5061684;28;20242;-73
2021/08/20 07:00:31;;;;;;;6.43;5.03;;;;;;;18.08;95.93;100706.78;5066866;28;20214;-73
2021/08/20 07:02:58;;;;;;;6.77;5.40;;;;;;;18.17;94.94;100706.28;5052283;28;20215;-73
2021/08/20 07:05:24;;;;;;;7.60;5.40;;;;;;;18.17;93.90;100704.50;5051451;28;20209;-73
2021/08/20 07:07:50;;;;;;;6.57;5.23;;;;;;;18.26;94.62;100695.19;5051592;28;20233;-73
2021/08/20 07:10:18;;;;;;;6.93;5.53;;;;;;;18.37;94.15;100699.84;5065531;28;20195;-73
2021/08/20 07:12:45;;;;;;;7.57;5.20;;;;;;;18.41;92.67;100700.53;5049023;28;20208;-74
2021/08/20 07:15:14;;;;;;;6.53;4.83;;;;;;;18.47;93.19;100701.03;5053629;28;20208;-73
2021/08/20 07:17:41;;;;;;;7.40;4.53;;;;;;;18.55;94.38;100698.78;5034183;28;20237;-74
2021/08/20 07:20:11;;;;;;;6.57;5.23;;;;;;;18.58;92.34;100718.88;5038368;28;20275;-73
2021/08/20 07:22:37;;;;;;;6.97;5.27;;;;;;;18.58;91.42;100704.84;5037441;28;20200;-73
2021/08/20 07:25:04;;;;;;;7.53;5.03;;;;;;;18.55;90.06;100705.84;5036094;28;20266;-73
2021/08/20 07:27:30;;;;;;;6.67;5.30;;;;;;;18.59;89.25;100712.69;5029860;28;20227;-73
2021/08/20 07:29:57;;;;;;;6.47;4.40;;;;;;;18.59;90.24;100712.69;5033294;28;20196;-73
2021/08/20 07:32:24;;;;;;;6.87;4.80;;;;;;;18.70;89.89;100712.06;5029226;28;20200;-73
2021/08/20 07:34:51;;;;;;;6.17;5.10;;;;;;;18.80;89.43;100712.34;5028609;28;20704;-73
2021/08/20 07:37:17;;;;;;;5.57;4.70;;;;;;;18.92;89.25;100715.13;5030784;28;20222;-73
2021/08/20 07:39:44;;;;;;;6.23;4.83;;;;;;;18.95;86.85;100719.38;5022311;28;20231;-74
2021/08/20 07:42:10;;;;;;;6.27;4.83;;;;;;;19.01;87.11;100720.81;5033359;28;20219;-73
2021/08/20 07:44:36;;;;;;;5.10;4.40;;;;;;;19.15;87.94;100726.09;5030639;28;20211;-73
2021/08/20 07:47:04;;;;;;;6.43;4.33;;;;;;;19.24;86.73;100724.69;5031085;28;20215;-74
2021/08/20 07:49:31;;;;;;;7.10;4.63;;;;;;;19.30;84.55;100734.91;5028041;28;20276;-74
2021/08/20 07:51:58;;;;;;;6.50;4.80;;;;;;;19.42;84.70;100728.03;5030892;28;20204;-73
2021/08/20 07:54:25;;;;;;;5.47;4.70;;;;;;;19.60;84.69;100724.22;5031288;28;20269;-74
2021/08/20 07:56:51;;;;;;;6.10;4.17;;;;;;;19.56;83.82;100735.97;5032434;28;20192;-74
2021/08/20 07:59:17;;;;;;;6.03;4.80;;;;;;;19.52;84.25;100737.06;5032682;28;20287;-74
2021/08/20 08:01:44;;;;;;;5.53;4.57;;;;;;;19.58;85.42;100731.41;5032260;28;20206;-74
2021/08/20 08:04:10;;;;;;;5.17;4.30;;;;;;;19.57;85.00;100734.16;5035080;28;20195;-74
2021/08/20 08:06:38;;;;;;;5.07;4.20;;;;;;;19.64;84.30;100735.47;5032707;28;20212;-74
2021/08/20 08:09:05;;;;;;;6.30;4.67;;;;;;;19.75;85.49;100737.47;5031347;28;20219;-73
2021/08/20 08:11:31;;;;;;;4.50;3.80;;;;;;;19.88;84.88;100737.56;5035128;28;20218;-73
2021/08/20 08:14:03;;;;;;;5.53;4.33;;;;;;;19.90;83.62;100738.31;5036653;28;20208;-73
2021/08/20 08:16:29;;;;;;;5.33;4.53;;;;;;;20.07;83.27;100732.81;5044846;28;20215;-73
2021/08/20 08:18:56;;;;;;;5.27;4.20;;;;;;;20.18;81.23;100745.34;5067184;28;20717;-74
2021/08/20 08:21:22;;;;;;;6.77;4.77;;;;;;;20.26;81.65;100742.19;5055896;28;20281;-74
2021/08/20 08:23:50;;;;;;;5.03;3.97;;;;;;;20.35;81.68;100745.09;5058467;28;20203;-74
2021/08/20 08:26:16;;;;;;;16.13;10.83;;;;;;;20.50;81.13;100742.38;5056372;28;20977;-74
2021/08/20 08:28:42;;;;;;;6.57;4.93;;;;;;;20.68;80.25;100741.19;5064345;28;20482;-74
2021/08/20 08:31:09;;;;;;;5.60;4.03;;;;;;;20.84;79.29;100746.28;5054268;28;20203;-74
2021/08/20 08:33:35;;;;;;;10.50;7.23;;;;;;;20.97;80.46;100741.88;5056439;28;20200;-74
2021/08/20 08:36:02;;;;;;;6.60;5.17;;;;;;;21.12;77.98;100737.31;5058585;28;20199;-74
2021/08/20 08:38:28;;;;;;;6.73;3.67;;;;;;;21.29;75.46;100746.78;5051105;28;20245;-74
2021/08/20 08:40:56;;;;;;;5.20;3.20;;;;;;;21.33;77.18;100750.91;5065634;28;20273;-74
2021/08/20 08:43:23;;;;;;;4.63;3.67;;;;;;;21.28;76.35;100749.53;5050997;28;20207;-74
2021/08/20 08:45:50;;;;;;;4.37;3.60;;;;;;;21.00;75.72;100748.75;5055169;28;20209;-74
2021/08/20 08:48:16;;;;;;;13.03;7.33;;;;;;;20.85;76.23;100753.31;5056248;28;20223;-73
2021/08/20 08:50:45;;;;;;;12.50;6.30;;;;;;;20.49;78.03;100741.53;5053097;28;20217;-73
2021/08/20 08:53:12;;;;;;;6.07;3.87;;;;;;;20.47;78.63;100746.06;5054733;28;20206;-74
2021/08/20 08:55:39;;;;;;;43.57;18.93;;;;;;;20.42;78.78;100751.69;5065470;28;20294;-74
2021/08/20 08:58:08;;;;;;;4.10;3.17;;;;;;;20.27;79.75;100746.53;5055241;28;20700;-74
2021/08/20 09:00:36;;;;;;;5.23;3.50;;;;;;;20.39;80.16;100743.94;5061422;28;20227;-74
2021/08/20 09:03:03;;;;;;;4.00;3.03;;;;;;;20.56;79.98;100742.84;5056216;28;20639;-73
2021/08/20 09:05:43;;;;;;;11.80;8.93;;;;;;;20.76;80.29;100748.63;5056448;28;20213;-74
2021/08/20 09:08:11;;;;;;;5.03;4.00;;;;;;;20.86;79.73;100740.91;5058459;28;20214;-74
2021/08/20 09:10:38;;;;;;;4.57;3.63;;;;;;;20.91;78.31;100749.38;5055557;28;20199;-74
2021/08/20 09:13:04;;;;;;;7.50;5.33;;;;;;;21.01;79.65;100744.31;5052789;28;20209;-74
2021/08/20 09:15:33;;;;;;;5.40;4.67;;;;;;;20.93;77.34;100748.34;5055683;28;20219;-74
2021/08/20 09:18:02;;;;;;;3.97;3.20;;;;;;;20.85;77.37;100740.06;5043406;28;20212;-73
2021/08/20 09:20:31;;;;;;;4.57;3.27;;;;;;;20.87;78.67;100738.16;5034587;28;20230;-73
2021/08/20 09:22:59;;;;;;;5.80;3.37;;;;;;;20.97;77.15;100746.34;5036705;28;20209;-74
2021/08/20 09:25:32;;;;;;;5.17;3.10;;;;;;;21.08;77.66;100745.59;5034857;28;20212;-73
2021/08/20 09:28:17;;;;;;;4.20;3.23;;;;;;;21.19;76.66;100743.06;5038800;28;20690;-73
2021/08/20 09:30:59;;;;;;;3.60;3.00;;;;;;;21.27;75.99;100745.19;5037526;28;20214;-73
2021/08/20 09:33:27;;;;;;;5.20;3.47;;;;;;;21.26;75.95;100746.13;5041323;28;20706;-73
2021/08/20 09:35:58;;;;;;;4.13;3.63;;;;;;;21.26;75.20;100738.19;5039107;28;20210;-74
2021/08/20 09:38:25;;;;;;;5.27;3.60;;;;;;;21.33;75.55;100737.63;5037900;28;20223;-74
2021/08/20 09:40:56;;;;;;;3.73;3.33;;;;;;;21.26;75.80;100743.47;5043082;28;20211;-73
2021/08/20 09:43:27;;;;;;;4.85;3.80;;;;;;;21.11;76.43;100732.16;5037740;28;20204;-74
2021/08/20 09:46:13;;;;;;;3.65;3.33;;;;;;;21.09;76.68;100726.06;5031643;28;20528;-74
2021/08/20 09:48:49;;;;;;;5.40;3.70;;;;;;;21.13;74.87;100739.03;5036025;28;20220;-74
2021/08/20 09:51:42;;;;;;;4.63;3.90;;;;;;;21.34;74.69;100738.50;5038073;28;20219;-74
2021/08/20 09:54:11;;;;;;;4.90;4.40;;;;;;;21.57;74.24;100744.88;5040643;28;20205;-73
2021/08/20 09:56:38;;;;;;;5.15;4.35;;;;;;;21.89;73.93;100742.56;5037051;28;20215;-73
2021/08/20 09:59:06;;;;;;;5.10;4.60;;;;;;;22.00;71.84;100747.09;5030677;28;20250;-74
2021/08/20 10:01:35;;;;;;;5.90;4.72;;;;;;;22.12;72.86;100732.09;5035789;28;20231;-74
2021/08/20 10:04:04;;;;;;;4.93;4.43;;;;;;;21.97;71.44;100744.69;5040486;28;20204;-74
2021/08/20 10:06:33;;;;;;;5.18;4.32;;;;;;;21.82;71.65;100748.44;5036621;28;20208;-73
2021/08/20 10:09:01;;;;;;;6.63;4.20;;;;;;;21.59;71.87;100745.63;5039509;28;20231;-73
2021/08/20 10:11:28;;;;;;;4.80;4.28;;;;;;;21.51;72.57;100740.84;5036550;28;20204;-73
2021/08/20 10:13:57;;;;;;;6.53;4.47;;;;;;;21.39;72.06;100747.00;5039788;28;20539;-73
2021/08/20 10:16:23;;;;;;;4.93;4.28;;;;;;;21.26;73.32;100739.00;5050680;28;20222;-73
2021/08/20 10:18:51;;;;;;;6.70;4.10;;;;;;;21.05;71.97;100746.66;5063536;28;20223;-73
2021/08/20 10:21:17;;;;;;;4.43;3.80;;;;;;;20.91;72.84;100738.78;5063316;28;20219;-73
2021/08/20 10:23:45;;;;;;;5.60;3.90;;;;;;;20.69;72.51;100750.00;5056237;28;20261;-73
2021/08/20 10:26:12;;;;;;;4.68;3.78;;;;;;;20.49;71.52;100753.91;5053823;28;20201;-73
2021/08/20 10:28:40;;;;;;;5.93;3.90;;;;;;;20.36;71.77;100751.22;5056318;28;20230;-74
2021/08/20 10:31:09;;;;;;;7.20;4.27;;;;;;;20.29;72.01;100742.00;5063942;28;20205;-74
2021/08/20 10:33:37;;;;;;;4.40;3.73;;;;;;;20.33;72.41;100741.66;5057009;28;20211;-73
2021/08/20 10:36:06;;;;;;;3.80;3.50;;;;;;;20.37;72.99;100745.00;5065412;28;20206;-73
2021/08/20 10:38:40;;;;;;;6.23;4.20;;;;;;;20.28;73.39;100745.56;5056085;28;20600;-74
2021/08/20 10:41:15;;;;;;;4.67;3.80;;;;;;;20.25;75.65;100749.28;5063541;28;20222;-74
2021/08/20 10:44:01;;;;;;;4.43;4.03;;;;;;;20.26;74.61;100758.06;5058639;28;20203;-74
2021/08/20 10:47:10;;;;;;;5.30;4.00;;;;;;;20.29;74.88;100761.34;5056232;28;20215;-74
2021/08/20 10:49:48;;;;;;;4.30;3.80;;;;;;;20.19;72.86;100765.53;5058652;28;20203;-74
2021/08/20 10:52:32;;;;;;;4.30;3.90;;;;;;;20.30;73.67;100759.56;5054850;28;20214;-73
2021/08/20 10:55:24;;;;;;;6.13;4.13;;;;;;;20.38;73.30;100750.16;5060211;28;20223;-74
2021/08/20 10:57:55;;;;;;;5.57;4.20;;;;;;;20.53;72.80;100761.56;5057551;28;20227;-74
2021/08/20 11:00:26;;;;;;;5.87;4.50;;;;;;;20.55;72.31;100759.66;5060527;28;20231;-73
2021/08/20 11:02:53;;;;;;;4.80;4.30;;;;;;;20.52;71.92;100765.16;5061543;28;20361;-73
2021/08/20 11:05:21;;;;;;;5.80;4.53;;;;;;;20.49;71.69;100754.78;5057757;28;20238;-74
2021/08/20 11:07:49;;;;;;;5.60;4.43;;;;;;;20.54;70.53;100754.47;5061035;28;20227;-74
2021/08/20 11:10:32;;;;;;;5.30;4.07;;;;;;;20.78;71.60;100744.91;5054199;28;20203;-74
2021/08/20 11:13:02;;;;;;;4.37;3.90;;;;;;;21.01;71.10;100739.03;5070485;28;20207;-73
2021/08/20 11:15:53;;;;;;;5.63;4.57;;;;;;;21.33;69.20;100744.75;5056273;28;20241;-74
2021/08/20 11:18:40;;;;;;;5.63;4.47;;;;;;;21.50;68.19;100754.22;5033098;28;20240;-74
2021/08/20 11:21:06;;;;;;;5.20;4.10;;;;;;;21.61;70.47;100761.44;5035474;28;20208;-73
2021/08/20 11:23:34;;;;;;;6.07;3.90;;;;;;;21.64;68.92;100759.41;5032772;28;20215;-74
2021/08/20 11:26:03;;;;;;;5.43;4.27;;;;;;;21.74;68.85;100754.31;5036140;28;20203;-74
2021/08/20 11:28:32;;;;;;;5.77;4.83;;;;;;;21.76;68.20;100757.69;5034819;28;20266;-74
2021/08/20 11:31:00;;;;;;;6.53;4.97;;;;;;;21.75;67.65;100762.13;5036872;28;20200;-74
2021/08/20 11:33:28;;;;;;;5.85;4.25;;;;;;;21.92;68.71;100754.78;5031649;28;20207;-74